sensor_id;sensor_type;location;lat;lon;timestamp;temperature;humidity
52187;DHT22;38161;53.020;6.598;2022-12-20T00:01:51;8.70;99.90
52187;DHT22;38161;53.020;6.598;2022-12-20T00:04:16;8.70;99.90
52187;DHT22;38161;53.020;6.598;2022-12-20T00:06:42;8.70;99.90
52187;DHT22;38161;53.020;6.598;2022-12-20T00:09:10;8.80;99.90
52187;DHT22;38161;53.020;6.598;2022-12-20T00:11:38;8.80;99.90
52187;DHT22;38161;53.020;6.598;2022-12-20T00:14:04;8.80;99.90
52187;DHT22;38161;53.020;6.598;2022-12-20T00:16:30;8.80;99.90
52187;DHT22;38161;53.020;6.598;2022-12-20T00:18:58;8.80;99.90
52187;DHT22;38161;53.020;6.598;2022-12-20T00:21:24;8.80;99.90
52187;DHT22;38161;53.020;6.598;2022-12-20T00:23:51;8.80;99.90
52187;DHT22;38161;53.020;6.598;2022-12-20T00:26:17;8.90;99.90
52187;DHT22;38161;53.020;6.598;2022-12-20T00:28:44;8.80;99.90
52187;DHT22;38161;53.020;6.598;2022-12-20T00:31:12;8.90;99.90
52187;DHT22;38161;53.020;6.598;2022-12-20T00:33:38;8.90;99.90
52187;DHT22;38161;53.020;6.598;2022-12-20T00:36:06;8.90;99.90
52187;DHT22;38161;53.020;6.598;2022-12-20T00:38:32;8.90;99.90
52187;DHT22;38161;53.020;6.598;2022-12-20T00:43:29;8.90;99.90
52187;DHT22;38161;53.020;6.598;2022-12-20T00:45:54;8.90;99.90
52187;DHT22;38161;53.020;6.598;2022-12-20T00:48:20;8.90;99.90
52187;DHT22;38161;53.020;6.598;2022-12-20T00:50:46;8.90;99.90
52187;DHT22;38161;53.020;6.598;2022-12-20T00:53:12;8.90;99.90
52187;DHT22;38161;53.020;6.598;2022-12-20T00:55:42;9.00;99.90
52187;DHT22;38161;53.020;6.598;2022-12-20T00:58:08;9.00;99.90
52187;DHT22;38161;53.020;6.598;2022-12-20T01:00:34;9.00;99.90
52187;DHT22;38161;53.020;6.598;2022-12-20T01:02:59;9.00;99.90
52187;DHT22;38161;53.020;6.598;2022-12-20T01:05:25;9.00;99.90
52187;DHT22;38161;53.020;6.598;2022-12-20T01:07:51;9.00;99.90
52187;DHT22;38161;53.020;6.598;2022-12-20T01:10:16;9.10;99.90
52187;DHT22;38161;53.020;6.598;2022-12-20T01:12:43;9.10;99.90
52187;DHT22;38161;53.020;6.598;2022-12-20T01:15:09;9.10;99.90
52187;DHT22;38161;53.020;6.598;2022-12-20T01:17:35;9.10;99.90
52187;DHT22;38161;53.020;6.598;2022-12-20T01:20:02;9.10;99.90
52187;DHT22;38161;53.020;6.598;2022-12-20T01:22:28;9.10;99.90
52187;DHT22;38161;53.020;6.598;2022-12-20T01:24:53;9.10;99.90
52187;DHT22;38161;53.020;6.598;2022-12-20T01:27:19;9.00;99.90
52187;DHT22;38161;53.020;6.598;2022-12-20T01:29:45;9.10;99.90
52187;DHT22;38161;53.020;6.598;2022-12-20T01:32:10;9.00;99.90
52187;DHT22;38161;53.020;6.598;2022-12-20T01:34:36;9.10;99.90
52187;DHT22;38161;53.020;6.598;2022-12-20T01:37:02;9.10;99.90
52187;DHT22;38161;53.020;6.598;2022-12-20T01:39:28;9.00;99.90
52187;DHT22;38161;53.020;6.598;2022-12-20T01:41:53;9.00;99.90
52187;DHT22;38161;53.020;6.598;2022-12-20T01:46:46;9.00;99.90
52187;DHT22;38161;53.020;6.598;2022-12-20T01:49:31;9.10;99.90
52187;DHT22;38161;53.020;6.598;2022-12-20T01:54:47;9.00;99.90
52187;DHT22;38161;53.020;6.598;2022-12-20T01:57:21;9.00;99.90
52187;DHT22;38161;53.020;6.598;2022-12-20T01:59:49;9.00;99.90
52187;DHT22;38161;53.020;6.598;2022-12-20T02:02:17;9.00;99.90
52187;DHT22;38161;53.020;6.598;2022-12-20T02:04:42;9.10;99.90
52187;DHT22;38161;53.020;6.598;2022-12-20T02:07:12;9.00;99.90
52187;DHT22;38161;53.020;6.598;2022-12-20T02:09:40;9.00;99.90
52187;DHT22;38161;53.020;6.598;2022-12-20T02:12:14;9.00;99.90
52187;DHT22;38161;53.020;6.598;2022-12-20T02:26:22;9.20;99.90
52187;DHT22;38161;53.020;6.598;2022-12-20T02:29:16;9.10;99.90
52187;DHT22;38161;53.020;6.598;2022-12-20T02:34:17;9.10;99.90
52187;DHT22;38161;53.020;6.598;2022-12-20T02:36:43;9.20;99.90
52187;DHT22;38161;53.020;6.598;2022-12-20T02:39:12;9.10;99.90
52187;DHT22;38161;53.020;6.598;2022-12-20T02:41:50;9.20;99.90
52187;DHT22;38161;53.020;6.598;2022-12-20T02:44:18;9.20;99.90
52187;DHT22;38161;53.020;6.598;2022-12-20T02:47:07;9.20;99.90
52187;DHT22;38161;53.020;6.598;2022-12-20T02:49:36;9.20;99.90
52187;DHT22;38161;53.020;6.598;2022-12-20T02:52:04;9.10;99.90
52187;DHT22;38161;53.020;6.598;2022-12-20T02:54:31;9.10;99.90
52187;DHT22;38161;53.020;6.598;2022-12-20T02:57:24;9.10;99.90
52187;DHT22;38161;53.020;6.598;2022-12-20T03:00:08;9.10;99.90
52187;DHT22;38161;53.020;6.598;2022-12-20T03:02:35;9.00;99.90
52187;DHT22;38161;53.020;6.598;2022-12-20T03:05:22;9.00;99.90
52187;DHT22;38161;53.020;6.598;2022-12-20T03:07:49;8.90;99.90
52187;DHT22;38161;53.020;6.598;2022-12-20T03:10:16;8.90;99.90
52187;DHT22;38161;53.020;6.598;2022-12-20T03:12:42;8.90;99.90
52187;DHT22;38161;53.020;6.598;2022-12-20T03:15:08;8.90;99.90
52187;DHT22;38161;53.020;6.598;2022-12-20T03:17:35;8.80;99.90
52187;DHT22;38161;53.020;6.598;2022-12-20T03:20:01;8.80;99.90
52187;DHT22;38161;53.020;6.598;2022-12-20T03:22:26;8.80;99.90
52187;DHT22;38161;53.020;6.598;2022-12-20T03:24:52;8.80;99.90
52187;DHT22;38161;53.020;6.598;2022-12-20T03:27:18;8.80;99.90
52187;DHT22;38161;53.020;6.598;2022-12-20T03:29:44;8.80;99.90
52187;DHT22;38161;53.020;6.598;2022-12-20T03:32:10;8.80;99.90
52187;DHT22;38161;53.020;6.598;2022-12-20T03:34:36;8.80;99.90
52187;DHT22;38161;53.020;6.598;2022-12-20T03:37:02;8.80;99.90
52187;DHT22;38161;53.020;6.598;2022-12-20T03:39:28;8.80;99.90
52187;DHT22;38161;53.020;6.598;2022-12-20T03:41:54;8.90;99.90
52187;DHT22;38161;53.020;6.598;2022-12-20T03:44:20;8.80;99.90
52187;DHT22;38161;53.020;6.598;2022-12-20T03:46:46;8.90;99.90
52187;DHT22;38161;53.020;6.598;2022-12-20T03:49:11;8.90;99.90
52187;DHT22;38161;53.020;6.598;2022-12-20T03:51:37;8.90;99.90
52187;DHT22;38161;53.020;6.598;2022-12-20T03:54:03;8.90;99.90
52187;DHT22;38161;53.020;6.598;2022-12-20T03:56:28;8.90;99.90
52187;DHT22;38161;53.020;6.598;2022-12-20T03:58:54;8.80;99.90
52187;DHT22;38161;53.020;6.598;2022-12-20T04:01:22;8.90;99.90
52187;DHT22;38161;53.020;6.598;2022-12-20T04:03:49;8.90;99.90
52187;DHT22;38161;53.020;6.598;2022-12-20T04:06:15;8.90;99.90
52187;DHT22;38161;53.020;6.598;2022-12-20T04:08:41;8.80;99.90
52187;DHT22;38161;53.020;6.598;2022-12-20T04:11:07;8.90;99.90
52187;DHT22;38161;53.020;6.598;2022-12-20T04:16:09;8.90;99.90
52187;DHT22;38161;53.020;6.598;2022-12-20T04:18:35;9.00;99.90
52187;DHT22;38161;53.020;6.598;2022-12-20T04:21:01;8.90;99.90
52187;DHT22;38161;53.020;6.598;2022-12-20T04:23:27;8.90;99.90
52187;DHT22;38161;53.020;6.598;2022-12-20T04:25:53;9.00;99.90
52187;DHT22;38161;53.020;6.598;2022-12-20T04:28:18;9.00;99.90
52187;DHT22;38161;53.020;6.598;2022-12-20T04:30:44;9.00;99.90
52187;DHT22;38161;53.020;6.598;2022-12-20T04:33:10;9.00;99.90
52187;DHT22;38161;53.020;6.598;2022-12-20T04:35:36;9.00;99.90
52187;DHT22;38161;53.020;6.598;2022-12-20T04:38:02;9.00;99.90
52187;DHT22;38161;53.020;6.598;2022-12-20T04:40:28;9.10;99.90
52187;DHT22;38161;53.020;6.598;2022-12-20T04:42:54;9.10;99.90
52187;DHT22;38161;53.020;6.598;2022-12-20T04:45:19;9.10;99.90
52187;DHT22;38161;53.020;6.598;2022-12-20T04:47:45;9.10;99.90
52187;DHT22;38161;53.020;6.598;2022-12-20T04:50:11;9.10;99.90
52187;DHT22;38161;53.020;6.598;2022-12-20T04:52:36;9.10;99.90
52187;DHT22;38161;53.020;6.598;2022-12-20T04:55:21;9.10;99.90
52187;DHT22;38161;53.020;6.598;2022-12-20T04:57:46;9.10;99.90
52187;DHT22;38161;53.020;6.598;2022-12-20T05:00:13;9.10;99.90
52187;DHT22;38161;53.020;6.598;2022-12-20T05:02:40;9.20;99.90
52187;DHT22;38161;53.020;6.598;2022-12-20T05:05:06;9.20;99.90
52187;DHT22;38161;53.020;6.598;2022-12-20T05:07:32;9.20;99.90
52187;DHT22;38161;53.020;6.598;2022-12-20T05:09:58;9.20;99.90
52187;DHT22;38161;53.020;6.598;2022-12-20T05:12:23;9.30;99.90
52187;DHT22;38161;53.020;6.598;2022-12-20T05:14:49;9.30;99.90
52187;DHT22;38161;53.020;6.598;2022-12-20T05:17:15;9.30;99.90
52187;DHT22;38161;53.020;6.598;2022-12-20T05:19:41;9.30;99.90
52187;DHT22;38161;53.020;6.598;2022-12-20T05:22:07;9.30;99.90
52187;DHT22;38161;53.020;6.598;2022-12-20T05:24:52;9.40;99.90
52187;DHT22;38161;53.020;6.598;2022-12-20T05:27:36;9.40;99.90
52187;DHT22;38161;53.020;6.598;2022-12-20T05:30:02;9.40;99.90
52187;DHT22;38161;53.020;6.598;2022-12-20T05:32:29;9.40;99.90
52187;DHT22;38161;53.020;6.598;2022-12-20T05:34:54;9.40;99.90
52187;DHT22;38161;53.020;6.598;2022-12-20T05:37:20;9.50;99.90
52187;DHT22;38161;53.020;6.598;2022-12-20T05:39:46;9.50;99.90
52187;DHT22;38161;53.020;6.598;2022-12-20T05:42:12;9.60;99.90
52187;DHT22;38161;53.020;6.598;2022-12-20T05:44:37;9.60;99.90
52187;DHT22;38161;53.020;6.598;2022-12-20T05:47:03;9.60;99.90
52187;DHT22;38161;53.020;6.598;2022-12-20T05:49:29;9.60;99.90
52187;DHT22;38161;53.020;6.598;2022-12-20T05:51:54;9.70;99.90
52187;DHT22;38161;53.020;6.598;2022-12-20T05:54:20;9.70;99.90
52187;DHT22;38161;53.020;6.598;2022-12-20T05:56:46;9.70;99.90
52187;DHT22;38161;53.020;6.598;2022-12-20T05:59:11;9.70;99.90
52187;DHT22;38161;53.020;6.598;2022-12-20T06:01:37;9.80;99.90
52187;DHT22;38161;53.020;6.598;2022-12-20T06:04:03;9.70;99.90
52187;DHT22;38161;53.020;6.598;2022-12-20T06:06:29;9.70;99.90
52187;DHT22;38161;53.020;6.598;2022-12-20T06:08:55;9.70;99.90
52187;DHT22;38161;53.020;6.598;2022-12-20T06:11:21;9.70;99.90
52187;DHT22;38161;53.020;6.598;2022-12-20T06:13:46;9.70;99.90
52187;DHT22;38161;53.020;6.598;2022-12-20T06:16:12;9.80;99.90
52187;DHT22;38161;53.020;6.598;2022-12-20T06:18:38;9.80;99.90
52187;DHT22;38161;53.020;6.598;2022-12-20T06:21:04;9.80;99.90
52187;DHT22;38161;53.020;6.598;2022-12-20T06:23:29;9.80;99.90
52187;DHT22;38161;53.020;6.598;2022-12-20T06:25:55;9.80;99.90
52187;DHT22;38161;53.020;6.598;2022-12-20T06:28:21;9.90;99.90
52187;DHT22;38161;53.020;6.598;2022-12-20T06:30:54;9.90;99.90
52187;DHT22;38161;53.020;6.598;2022-12-20T06:33:20;9.90;99.90
52187;DHT22;38161;53.020;6.598;2022-12-20T06:35:46;9.90;99.90
52187;DHT22;38161;53.020;6.598;2022-12-20T06:38:11;9.90;99.90
52187;DHT22;38161;53.020;6.598;2022-12-20T06:40:37;9.90;99.90
52187;DHT22;38161;53.020;6.598;2022-12-20T06:43:03;9.90;99.90
52187;DHT22;38161;53.020;6.598;2022-12-20T06:45:28;9.90;99.90
52187;DHT22;38161;53.020;6.598;2022-12-20T06:47:56;9.90;99.90
52187;DHT22;38161;53.020;6.598;2022-12-20T06:50:22;9.90;99.90
52187;DHT22;38161;53.020;6.598;2022-12-20T06:52:48;9.80;99.90
52187;DHT22;38161;53.020;6.598;2022-12-20T06:55:13;9.80;99.90
52187;DHT22;38161;53.020;6.598;2022-12-20T06:57:39;9.70;99.90
52187;DHT22;38161;53.020;6.598;2022-12-20T07:00:05;9.70;99.90
52187;DHT22;38161;53.020;6.598;2022-12-20T07:02:33;9.70;99.90
52187;DHT22;38161;53.020;6.598;2022-12-20T07:04:58;9.60;99.90
52187;DHT22;38161;53.020;6.598;2022-12-20T07:07:24;9.60;99.90
52187;DHT22;38161;53.020;6.598;2022-12-20T07:09:50;9.60;99.90
52187;DHT22;38161;53.020;6.598;2022-12-20T07:12:16;9.60;99.90
52187;DHT22;38161;53.020;6.598;2022-12-20T07:14:42;9.50;99.90
52187;DHT22;38161;53.020;6.598;2022-12-20T07:17:07;9.50;99.90
52187;DHT22;38161;53.020;6.598;2022-12-20T07:19:34;9.60;99.90
52187;DHT22;38161;53.020;6.598;2022-12-20T07:22:01;9.60;99.90
52187;DHT22;38161;53.020;6.598;2022-12-20T07:24:28;9.60;99.90
52187;DHT22;38161;53.020;6.598;2022-12-20T07:26:53;9.60;99.90
52187;DHT22;38161;53.020;6.598;2022-12-20T07:29:19;9.60;99.90
52187;DHT22;38161;53.020;6.598;2022-12-20T07:31:45;9.60;99.90
52187;DHT22;38161;53.020;6.598;2022-12-20T07:34:11;9.60;99.90
52187;DHT22;38161;53.020;6.598;2022-12-20T07:36:36;9.60;99.90
52187;DHT22;38161;53.020;6.598;2022-12-20T07:39:02;9.60;99.90
52187;DHT22;38161;53.020;6.598;2022-12-20T07:41:28;9.60;99.90
52187;DHT22;38161;53.020;6.598;2022-12-20T07:43:54;9.60;99.90
52187;DHT22;38161;53.020;6.598;2022-12-20T07:46:19;9.60;99.90
52187;DHT22;38161;53.020;6.598;2022-12-20T07:48:46;9.70;99.90
52187;DHT22;38161;53.020;6.598;2022-12-20T07:51:20;9.70;99.90
52187;DHT22;38161;53.020;6.598;2022-12-20T07:53:51;9.70;99.90
52187;DHT22;38161;53.020;6.598;2022-12-20T07:56:19;9.70;99.90
52187;DHT22;38161;53.020;6.598;2022-12-20T07:58:45;9.70;99.90
52187;DHT22;38161;53.020;6.598;2022-12-20T08:01:11;9.70;99.90
52187;DHT22;38161;53.020;6.598;2022-12-20T08:03:47;9.70;99.90
52187;DHT22;38161;53.020;6.598;2022-12-20T08:06:14;9.80;99.90
52187;DHT22;38161;53.020;6.598;2022-12-20T08:08:46;9.80;99.90
52187;DHT22;38161;53.020;6.598;2022-12-20T08:11:14;9.80;99.90
52187;DHT22;38161;53.020;6.598;2022-12-20T08:13:40;9.80;99.90
52187;DHT22;38161;53.020;6.598;2022-12-20T08:16:06;9.80;99.90
52187;DHT22;38161;53.020;6.598;2022-12-20T08:18:32;9.80;99.90
52187;DHT22;38161;53.020;6.598;2022-12-20T08:20:58;9.90;99.90
52187;DHT22;38161;53.020;6.598;2022-12-20T08:23:24;9.90;99.90
52187;DHT22;38161;53.020;6.598;2022-12-20T08:25:49;9.90;99.90
52187;DHT22;38161;53.020;6.598;2022-12-20T08:28:15;9.90;99.90
52187;DHT22;38161;53.020;6.598;2022-12-20T08:30:41;9.90;99.90
52187;DHT22;38161;53.020;6.598;2022-12-20T08:33:06;9.90;99.90
52187;DHT22;38161;53.020;6.598;2022-12-20T08:35:32;9.90;99.90
52187;DHT22;38161;53.020;6.598;2022-12-20T08:37:58;9.90;99.90
52187;DHT22;38161;53.020;6.598;2022-12-20T08:40:24;9.90;99.90
52187;DHT22;38161;53.020;6.598;2022-12-20T08:42:49;10.00;99.90
52187;DHT22;38161;53.020;6.598;2022-12-20T08:45:15;10.00;99.90
52187;DHT22;38161;53.020;6.598;2022-12-20T08:47:41;10.00;99.90
52187;DHT22;38161;53.020;6.598;2022-12-20T08:50:07;10.00;99.90
52187;DHT22;38161;53.020;6.598;2022-12-20T08:52:33;10.00;99.90
52187;DHT22;38161;53.020;6.598;2022-12-20T08:54:59;10.00;99.90
52187;DHT22;38161;53.020;6.598;2022-12-20T08:57:24;10.00;99.90
52187;DHT22;38161;53.020;6.598;2022-12-20T08:59:50;10.00;99.90
52187;DHT22;38161;53.020;6.598;2022-12-20T09:02:16;10.10;99.90
52187;DHT22;38161;53.020;6.598;2022-12-20T09:04:42;10.10;99.90
52187;DHT22;38161;53.020;6.598;2022-12-20T09:07:09;10.10;99.90
52187;DHT22;38161;53.020;6.598;2022-12-20T09:09:35;10.10;99.90
52187;DHT22;38161;53.020;6.598;2022-12-20T09:12:01;10.10;99.90
52187;DHT22;38161;53.020;6.598;2022-12-20T09:14:26;10.20;99.90
52187;DHT22;38161;53.020;6.598;2022-12-20T09:16:52;10.10;99.90
52187;DHT22;38161;53.020;6.598;2022-12-20T09:19:18;10.10;99.90
52187;DHT22;38161;53.020;6.598;2022-12-20T09:21:44;10.20;99.90
52187;DHT22;38161;53.020;6.598;2022-12-20T09:24:09;10.10;99.90
52187;DHT22;38161;53.020;6.598;2022-12-20T09:26:35;10.20;99.90
52187;DHT22;38161;53.020;6.598;2022-12-20T09:29:02;10.10;99.90
52187;DHT22;38161;53.020;6.598;2022-12-20T09:31:28;10.10;99.90
52187;DHT22;38161;53.020;6.598;2022-12-20T09:33:55;10.20;99.90
52187;DHT22;38161;53.020;6.598;2022-12-20T09:36:23;10.20;99.90
52187;DHT22;38161;53.020;6.598;2022-12-20T09:38:49;10.20;99.90
52187;DHT22;38161;53.020;6.598;2022-12-20T09:43:44;10.30;99.90
52187;DHT22;38161;53.020;6.598;2022-12-20T09:46:13;10.30;99.90
52187;DHT22;38161;53.020;6.598;2022-12-20T09:48:44;10.30;99.90
52187;DHT22;38161;53.020;6.598;2022-12-20T09:57:12;10.30;99.90
52187;DHT22;38161;53.020;6.598;2022-12-20T09:59:43;10.30;99.90
52187;DHT22;38161;53.020;6.598;2022-12-20T10:02:11;10.30;99.90
52187;DHT22;38161;53.020;6.598;2022-12-20T10:04:37;10.30;99.90
52187;DHT22;38161;53.020;6.598;2022-12-20T10:07:14;10.30;99.90
52187;DHT22;38161;53.020;6.598;2022-12-20T10:15:39;10.30;99.90
52187;DHT22;38161;53.020;6.598;2022-12-20T10:21:24;10.20;99.90
52187;DHT22;38161;53.020;6.598;2022-12-20T10:24:19;10.20;99.90
52187;DHT22;38161;53.020;6.598;2022-12-20T10:26:49;10.20;99.90
52187;DHT22;38161;53.020;6.598;2022-12-20T10:29:15;10.10;99.90
52187;DHT22;38161;53.020;6.598;2022-12-20T10:31:41;10.10;99.90
52187;DHT22;38161;53.020;6.598;2022-12-20T10:34:07;10.10;99.90
52187;DHT22;38161;53.020;6.598;2022-12-20T10:36:35;10.10;99.90
52187;DHT22;38161;53.020;6.598;2022-12-20T10:39:04;10.10;99.90
52187;DHT22;38161;53.020;6.598;2022-12-20T10:41:33;10.10;99.90
52187;DHT22;38161;53.020;6.598;2022-12-20T10:46:47;10.10;99.90
52187;DHT22;38161;53.020;6.598;2022-12-20T10:51:54;10.10;99.90
52187;DHT22;38161;53.020;6.598;2022-12-20T10:54:34;10.10;99.90
52187;DHT22;38161;53.020;6.598;2022-12-20T10:57:11;10.10;99.90
52187;DHT22;38161;53.020;6.598;2022-12-20T10:59:38;10.10;99.90
52187;DHT22;38161;53.020;6.598;2022-12-20T11:02:30;10.10;99.90
52187;DHT22;38161;53.020;6.598;2022-12-20T11:07:59;10.00;99.90
52187;DHT22;38161;53.020;6.598;2022-12-20T11:10:25;10.00;99.90
52187;DHT22;38161;53.020;6.598;2022-12-20T11:12:56;10.00;99.90
52187;DHT22;38161;53.020;6.598;2022-12-20T11:15:25;10.00;99.90
52187;DHT22;38161;53.020;6.598;2022-12-20T11:17:59;10.00;99.90
52187;DHT22;38161;53.020;6.598;2022-12-20T11:36:39;10.10;99.90
52187;DHT22;38161;53.020;6.598;2022-12-20T11:39:18;10.10;99.90
52187;DHT22;38161;53.020;6.598;2022-12-20T11:44:48;10.10;99.90
52187;DHT22;38161;53.020;6.598;2022-12-20T11:52:45;10.10;99.90
52187;DHT22;38161;53.020;6.598;2022-12-20T12:00:22;10.10;99.90
52187;DHT22;38161;53.020;6.598;2022-12-20T12:05:49;10.10;99.90
52187;DHT22;38161;53.020;6.598;2022-12-20T12:08:22;10.10;99.90
52187;DHT22;38161;53.020;6.598;2022-12-20T12:10:58;10.10;99.90
52187;DHT22;38161;53.020;6.598;2022-12-20T12:13:30;10.10;99.90
52187;DHT22;38161;53.020;6.598;2022-12-20T12:16:14;10.10;99.90
52187;DHT22;38161;53.020;6.598;2022-12-20T12:18:41;10.10;99.90
52187;DHT22;38161;53.020;6.598;2022-12-20T12:29:14;10.10;99.90
52187;DHT22;38161;53.020;6.598;2022-12-20T12:34:30;10.00;99.90
52187;DHT22;38161;53.020;6.598;2022-12-20T12:40:16;10.00;99.90
52187;DHT22;38161;53.020;6.598;2022-12-20T12:45:59;10.00;99.90
52187;DHT22;38161;53.020;6.598;2022-12-20T12:48:39;10.00;99.90
52187;DHT22;38161;53.020;6.598;2022-12-20T12:51:07;9.90;99.90
52187;DHT22;38161;53.020;6.598;2022-12-20T12:53:47;9.90;99.90
52187;DHT22;38161;53.020;6.598;2022-12-20T13:11:56;9.90;99.90
52187;DHT22;38161;53.020;6.598;2022-12-20T13:16:48;9.90;99.90
52187;DHT22;38161;53.020;6.598;2022-12-20T13:22:18;10.00;99.90
52187;DHT22;38161;53.020;6.598;2022-12-20T13:24:52;9.90;99.90
52187;DHT22;38161;53.020;6.598;2022-12-20T13:27:34;10.00;99.90
52187;DHT22;38161;53.020;6.598;2022-12-20T13:38:47;10.00;99.90
52187;DHT22;38161;53.020;6.598;2022-12-20T13:41:35;10.00;99.90
52187;DHT22;38161;53.020;6.598;2022-12-20T13:49:40;10.10;99.90
52187;DHT22;38161;53.020;6.598;2022-12-20T13:54:53;10.00;99.90
52187;DHT22;38161;53.020;6.598;2022-12-20T13:57:43;10.00;99.90
52187;DHT22;38161;53.020;6.598;2022-12-20T14:00:21;10.00;99.90
52187;DHT22;38161;53.020;6.598;2022-12-20T14:02:47;10.00;99.90
52187;DHT22;38161;53.020;6.598;2022-12-20T14:07:47;10.00;99.90
52187;DHT22;38161;53.020;6.598;2022-12-20T14:10:24;10.00;99.90
52187;DHT22;38161;53.020;6.598;2022-12-20T14:12:51;10.00;99.90
52187;DHT22;38161;53.020;6.598;2022-12-20T14:15:43;10.00;99.90
52187;DHT22;38161;53.020;6.598;2022-12-20T14:18:20;10.00;99.90
52187;DHT22;38161;53.020;6.598;2022-12-20T14:20:47;10.10;99.90
52187;DHT22;38161;53.020;6.598;2022-12-20T14:23:18;10.10;99.90
52187;DHT22;38161;53.020;6.598;2022-12-20T14:30:46;10.00;99.90
52187;DHT22;38161;53.020;6.598;2022-12-20T14:33:35;10.10;99.90
52187;DHT22;38161;53.020;6.598;2022-12-20T14:38:33;10.10;99.90
52187;DHT22;38161;53.020;6.598;2022-12-20T14:40:59;10.10;99.90
52187;DHT22;38161;53.020;6.598;2022-12-20T14:43:28;10.10;99.90
52187;DHT22;38161;53.020;6.598;2022-12-20T14:46:17;10.10;99.90
52187;DHT22;38161;53.020;6.598;2022-12-20T14:48:44;10.10;99.90
52187;DHT22;38161;53.020;6.598;2022-12-20T14:51:11;10.10;99.90
52187;DHT22;38161;53.020;6.598;2022-12-20T14:53:38;10.10;99.90
52187;DHT22;38161;53.020;6.598;2022-12-20T14:56:04;10.10;99.90
52187;DHT22;38161;53.020;6.598;2022-12-20T14:58:32;10.10;99.90
52187;DHT22;38161;53.020;6.598;2022-12-20T15:01:01;10.10;99.90
52187;DHT22;38161;53.020;6.598;2022-12-20T15:03:28;10.10;99.90
52187;DHT22;38161;53.020;6.598;2022-12-20T15:05:58;10.10;99.90
52187;DHT22;38161;53.020;6.598;2022-12-20T15:08:30;10.10;99.90
52187;DHT22;38161;53.020;6.598;2022-12-20T15:13:36;10.10;99.90
52187;DHT22;38161;53.020;6.598;2022-12-20T15:16:04;10.10;99.90
52187;DHT22;38161;53.020;6.598;2022-12-20T15:18:30;10.10;99.90
52187;DHT22;38161;53.020;6.598;2022-12-20T15:21:17;10.10;99.90
52187;DHT22;38161;53.020;6.598;2022-12-20T15:23:50;10.10;99.90
52187;DHT22;38161;53.020;6.598;2022-12-20T15:26:18;10.10;99.90
52187;DHT22;38161;53.020;6.598;2022-12-20T15:28:44;10.10;99.90
52187;DHT22;38161;53.020;6.598;2022-12-20T15:31:11;10.10;99.90
52187;DHT22;38161;53.020;6.598;2022-12-20T15:33:39;10.10;99.90
52187;DHT22;38161;53.020;6.598;2022-12-20T15:36:06;10.10;99.90
52187;DHT22;38161;53.020;6.598;2022-12-20T15:38:32;10.10;99.90
52187;DHT22;38161;53.020;6.598;2022-12-20T15:41:04;10.10;99.90
52187;DHT22;38161;53.020;6.598;2022-12-20T15:43:36;10.10;99.90
52187;DHT22;38161;53.020;6.598;2022-12-20T15:46:03;10.10;99.90
52187;DHT22;38161;53.020;6.598;2022-12-20T15:48:29;10.10;99.90
52187;DHT22;38161;53.020;6.598;2022-12-20T15:50:57;10.10;99.90
52187;DHT22;38161;53.020;6.598;2022-12-20T15:53:30;10.00;99.90
52187;DHT22;38161;53.020;6.598;2022-12-20T15:55:56;10.10;99.90
52187;DHT22;38161;53.020;6.598;2022-12-20T15:58:25;10.10;99.90
52187;DHT22;38161;53.020;6.598;2022-12-20T16:00:57;10.10;99.90
52187;DHT22;38161;53.020;6.598;2022-12-20T16:03:29;10.10;99.90
52187;DHT22;38161;53.020;6.598;2022-12-20T16:05:55;10.00;99.90
52187;DHT22;38161;53.020;6.598;2022-12-20T16:08:21;10.10;99.90
52187;DHT22;38161;53.020;6.598;2022-12-20T16:10:49;10.10;99.90
52187;DHT22;38161;53.020;6.598;2022-12-20T16:13:23;10.00;99.90
52187;DHT22;38161;53.020;6.598;2022-12-20T16:15:49;10.10;99.90
52187;DHT22;38161;53.020;6.598;2022-12-20T16:18:15;10.10;99.90
52187;DHT22;38161;53.020;6.598;2022-12-20T16:20:41;10.10;99.90
52187;DHT22;38161;53.020;6.598;2022-12-20T16:23:19;10.10;99.90
52187;DHT22;38161;53.020;6.598;2022-12-20T16:25:47;10.10;99.90
52187;DHT22;38161;53.020;6.598;2022-12-20T16:28:13;10.10;99.90
52187;DHT22;38161;53.020;6.598;2022-12-20T16:30:39;10.00;99.90
52187;DHT22;38161;53.020;6.598;2022-12-20T16:33:05;10.00;99.90
52187;DHT22;38161;53.020;6.598;2022-12-20T16:35:35;10.10;99.90
52187;DHT22;38161;53.020;6.598;2022-12-20T16:38:02;10.00;99.90
52187;DHT22;38161;53.020;6.598;2022-12-20T16:40:31;10.00;99.90
52187;DHT22;38161;53.020;6.598;2022-12-20T16:42:58;10.00;99.90
52187;DHT22;38161;53.020;6.598;2022-12-20T16:45:25;10.10;99.90
52187;DHT22;38161;53.020;6.598;2022-12-20T16:47:51;10.00;99.90
52187;DHT22;38161;53.020;6.598;2022-12-20T16:50:21;10.00;99.90
52187;DHT22;38161;53.020;6.598;2022-12-20T16:52:48;10.00;99.90
52187;DHT22;38161;53.020;6.598;2022-12-20T16:55:21;10.00;99.90
52187;DHT22;38161;53.020;6.598;2022-12-20T16:57:48;10.00;99.90
52187;DHT22;38161;53.020;6.598;2022-12-20T17:00:19;10.00;99.90
52187;DHT22;38161;53.020;6.598;2022-12-20T17:02:46;10.00;99.90
52187;DHT22;38161;53.020;6.598;2022-12-20T17:05:22;10.00;99.90
52187;DHT22;38161;53.020;6.598;2022-12-20T17:07:48;10.00;99.90
52187;DHT22;38161;53.020;6.598;2022-12-20T17:10:14;10.00;99.90
52187;DHT22;38161;53.020;6.598;2022-12-20T17:12:39;10.00;99.90
52187;DHT22;38161;53.020;6.598;2022-12-20T17:15:06;10.00;99.90
52187;DHT22;38161;53.020;6.598;2022-12-20T17:17:32;10.00;99.90
52187;DHT22;38161;53.020;6.598;2022-12-20T17:19:58;10.00;99.90
52187;DHT22;38161;53.020;6.598;2022-12-20T17:22:24;10.00;99.90
52187;DHT22;38161;53.020;6.598;2022-12-20T17:24:50;10.00;99.90
52187;DHT22;38161;53.020;6.598;2022-12-20T17:27:16;10.00;99.90
52187;DHT22;38161;53.020;6.598;2022-12-20T17:29:41;10.00;99.90
52187;DHT22;38161;53.020;6.598;2022-12-20T17:32:23;10.00;99.90
52187;DHT22;38161;53.020;6.598;2022-12-20T17:34:49;10.00;99.90
52187;DHT22;38161;53.020;6.598;2022-12-20T17:37:15;9.90;99.90
52187;DHT22;38161;53.020;6.598;2022-12-20T17:39:42;10.00;99.90
52187;DHT22;38161;53.020;6.598;2022-12-20T17:42:11;9.90;99.90
52187;DHT22;38161;53.020;6.598;2022-12-20T17:44:37;9.90;99.90
52187;DHT22;38161;53.020;6.598;2022-12-20T17:47:03;9.90;99.90
52187;DHT22;38161;53.020;6.598;2022-12-20T17:49:28;9.90;99.90
52187;DHT22;38161;53.020;6.598;2022-12-20T17:51:54;9.90;99.90
52187;DHT22;38161;53.020;6.598;2022-12-20T17:54:23;9.90;99.90
52187;DHT22;38161;53.020;6.598;2022-12-20T17:56:50;9.90;99.90
52187;DHT22;38161;53.020;6.598;2022-12-20T17:59:16;9.90;99.90
52187;DHT22;38161;53.020;6.598;2022-12-20T18:01:43;9.90;99.90
52187;DHT22;38161;53.020;6.598;2022-12-20T18:04:10;9.90;99.90
52187;DHT22;38161;53.020;6.598;2022-12-20T18:06:38;9.90;99.90
52187;DHT22;38161;53.020;6.598;2022-12-20T18:09:10;9.90;99.90
52187;DHT22;38161;53.020;6.598;2022-12-20T18:11:36;9.90;99.90
52187;DHT22;38161;53.020;6.598;2022-12-20T18:14:02;9.90;99.90
52187;DHT22;38161;53.020;6.598;2022-12-20T18:16:30;9.90;99.90
52187;DHT22;38161;53.020;6.598;2022-12-20T18:18:57;9.90;99.90